Yalova Air Base, Turkey

10:53 AM EET on November 26, 2014 (GMT +0200)
U.N. Ro-Ro Pendik Port | Change Station
CLOSE
Current Station
Personal Weather Station
Location: İstanbul,
Elevation: 10 ft
Nearby Weather Stations

Elev 10 ft 40.86 °N, 29.27 °E | Updated 6 minutes ago

Mostly Cloudy
Mostly Cloudy
47.1 °F
Feels Like 42 °F
N
10.1
Wind Variable Wind from North
Gusts 22.5 mph

Today
High -- | Low -- °F
--% Chance of Precip.
Yesterday
High -- | Low -- °F
Precip. -- in
7:01 AM 4:37 PM
Waxing Crescent, 18% visible
Pressure 30.15 in
Visibility 6.2 miles
Clouds Few 1700 ft
Mostly Cloudy 3000 ft
Mostly Cloudy 9000 ft
Windchill 42 °F
Dew Point 42 °F
Humidity 80%
Rainfall -999.00 in
Snow Depth Not available.
UV 1 out of 12
Pollen Not available.
Air Quality Not available.
Flu Activity Not available.
METAR LTFJ 260820Z 01018KT 9999 FEW017 BKN030 BKN090 07/04 Q1021 NOSIG

More Conditions Fewer Conditions

Pressure 30.15 in
Visibility 6.2 miles
Clouds Few 1700 ft
Mostly Cloudy 3000 ft
Mostly Cloudy 9000 ft
Windchill 42 °F
Dew Point 42 °F
Humidity 80%
Rainfall -999.00 in
Snow Depth Not available.
UV 1 out of 12
Pollen Not available.
Air Quality Not available.
Flu Activity Not available.
METAR LTFJ 260820Z 01018KT 9999 FEW017 BKN030 BKN090 07/04 Q1021 NOSIG

More Conditions Fewer Conditions

10-Day Weather Forecast

Almanac

Astronomy

Nov. 26, 2014 Rise Set
Actual Time
Civil Twilight
Nautical Twilight
Astronomical Twilight
Moon
Length of Visible Light
Length of Day
Tomorrow will be .
, % of the Moon is Illuminated

Today's Extremes

Country Highs Country Lows

Community

WunderPhotos

Upload Photos

1,773,694 photos uploaded!

WunderBlogs® & News

Nearby

Air Quality

  Air Quality AQ Index Pollutant
Not available.

Snow Depth

Station Depth Elevation

Earthquake Activity

City Distance Mag. Time & Date
Minimum magnitude displayed is 2.5.

Coastal Water Temperatures

Place Temperature

Nearby Weather Stations